sensor_id;sensor_type;location;lat;lon;timestamp;pressure;altitude;pressure_sealevel;temperature;humidity
73516;BME280;61763;51.416;5.442;2022-11-30T00:00:10;102154.41;;;6.11;100.00
73516;BME280;61763;51.416;5.442;2022-11-30T00:02:35;102152.66;;;6.10;100.00
73516;BME280;61763;51.416;5.442;2022-11-30T00:05:01;102159.81;;;6.06;100.00
73516;BME280;61763;51.416;5.442;2022-11-30T00:07:26;102153.53;;;6.10;100.00
73516;BME280;61763;51.416;5.442;2022-11-30T00:09:51;102158.94;;;6.07;100.00
73516;BME280;61763;51.416;5.442;2022-11-30T00:12:17;102157.13;;;6.08;100.00
73516;BME280;61763;51.416;5.442;2022-11-30T00:14:42;102161.56;;;6.12;100.00
73516;BME280;61763;51.416;5.442;2022-11-30T00:17:07;102163.38;;;6.10;100.00
73516;BME280;61763;51.416;5.442;2022-11-30T00:19:33;102158.88;;;6.10;100.00
73516;BME280;61763;51.416;5.442;2022-11-30T00:21:58;102161.59;;;6.09;100.00
73516;BME280;61763;51.416;5.442;2022-11-30T00:24:23;102163.34;;;6.11;100.00
73516;BME280;61763;51.416;5.442;2022-11-30T00:26:49;102159.75;;;6.16;100.00
73516;BME280;61763;51.416;5.442;2022-11-30T00:29:14;102166.91;;;6.12;100.00
73516;BME280;61763;51.416;5.442;2022-11-30T00:31:39;102162.44;;;6.11;100.00
73516;BME280;61763;51.416;5.442;2022-11-30T00:34:05;102164.25;;;6.10;100.00
73516;BME280;61763;51.416;5.442;2022-11-30T00:36:30;102157.09;;;6.11;100.00
73516;BME280;61763;51.416;5.442;2022-11-30T00:38:55;102165.16;;;6.12;100.00
73516;BME280;61763;51.416;5.442;2022-11-30T00:41:21;102165.13;;;6.11;100.00
73516;BME280;61763;51.416;5.442;2022-11-30T00:43:46;102165.16;;;6.09;100.00
73516;BME280;61763;51.416;5.442;2022-11-30T00:46:12;102159.75;;;6.16;100.00
73516;BME280;61763;51.416;5.442;2022-11-30T00:48:38;102170.44;;;6.19;100.00
73516;BME280;61763;51.416;5.442;2022-11-30T00:51:05;102162.44;;;6.14;100.00
73516;BME280;61763;51.416;5.442;2022-11-30T00:53:31;102166.91;;;6.12;100.00
73516;BME280;61763;51.416;5.442;2022-11-30T00:55:56;102166.91;;;6.12;100.00
73516;BME280;61763;51.416;5.442;2022-11-30T00:58:21;102167.81;;;6.09;100.00
73516;BME280;61763;51.416;5.442;2022-11-30T01:00:47;102166.06;;;6.10;100.00
73516;BME280;61763;51.416;5.442;2022-11-30T01:03:13;102165.13;;;6.11;100.00
73516;BME280;61763;51.416;5.442;2022-11-30T01:05:40;102179.34;;;6.19;100.00
73516;BME280;61763;51.416;5.442;2022-11-30T01:08:08;102177.59;;;6.15;100.00
73516;BME280;61763;51.416;5.442;2022-11-30T01:10:36;102184.72;;;6.19;100.00
73516;BME280;61763;51.416;5.442;2022-11-30T01:13:02;102184.75;;;6.16;100.00
73516;BME280;61763;51.416;5.442;2022-11-30T01:15:28;102182.88;;;6.21;100.00
73516;BME280;61763;51.416;5.442;2022-11-30T01:17:54;102177.53;;;6.23;100.00
73516;BME280;61763;51.416;5.442;2022-11-30T01:20:19;102173.13;;;6.17;100.00
73516;BME280;61763;51.416;5.442;2022-11-30T01:22:45;102173.94;;;6.22;100.00
73516;BME280;61763;51.416;5.442;2022-11-30T01:25:10;102180.22;;;6.20;100.00
73516;BME280;61763;51.416;5.442;2022-11-30T01:27:36;102187.44;;;6.16;100.00
73516;BME280;61763;51.416;5.442;2022-11-30T01:30:02;102182.97;;;6.13;100.00
73516;BME280;61763;51.416;5.442;2022-11-30T01:32:27;102182.03;;;6.19;100.00
73516;BME280;61763;51.416;5.442;2022-11-30T01:34:53;102189.16;;;6.22;100.00
73516;BME280;61763;51.416;5.442;2022-11-30T01:37:18;102183.84;;;6.19;100.00
73516;BME280;61763;51.416;5.442;2022-11-30T01:39:44;102181.19;;;6.16;100.00
73516;BME280;61763;51.416;5.442;2022-11-30T01:42:15;102188.25;;;6.20;100.00
73516;BME280;61763;51.416;5.442;2022-11-30T01:47:20;102182.03;;;6.19;100.00
73516;BME280;61763;51.416;5.442;2022-11-30T01:49:51;102185.59;;;6.18;100.00
73516;BME280;61763;51.416;5.442;2022-11-30T01:52:26;102185.63;;;6.15;100.00
73516;BME280;61763;51.416;5.442;2022-11-30T01:54:57;102183.88;;;6.14;100.00
73516;BME280;61763;51.416;5.442;2022-11-30T01:57:32;102188.34;;;6.13;100.00
73516;BME280;61763;51.416;5.442;2022-11-30T02:00:00;102185.66;;;6.13;100.00
73516;BME280;61763;51.416;5.442;2022-11-30T02:02:46;102198.13;;;6.19;100.00
73516;BME280;61763;51.416;5.442;2022-11-30T02:05:15;102199.00;;;6.23;100.00
73516;BME280;61763;51.416;5.442;2022-11-30T02:07:41;102194.56;;;6.19;100.00
73516;BME280;61763;51.416;5.442;2022-11-30T02:10:13;102194.56;;;6.19;100.00
73516;BME280;61763;51.416;5.442;2022-11-30T02:15:43;102201.69;;;6.17;100.00
73516;BME280;61763;51.416;5.442;2022-11-30T02:18:18;102193.66;;;6.18;100.00
73516;BME280;61763;51.416;5.442;2022-11-30T02:23:45;102202.63;;;6.16;100.00
73516;BME280;61763;51.416;5.442;2022-11-30T02:29:41;102207.13;;;6.10;100.00
73516;BME280;61763;51.416;5.442;2022-11-30T02:34:40;102206.22;;;6.13;100.00
73516;BME280;61763;51.416;5.442;2022-11-30T02:37:08;102209.78;;;6.13;100.00
73516;BME280;61763;51.416;5.442;2022-11-30T02:39:35;102215.16;;;6.12;100.00
73516;BME280;61763;51.416;5.442;2022-11-30T02:42:00;102207.13;;;6.12;100.00
73516;BME280;61763;51.416;5.442;2022-11-30T02:44:26;102207.13;;;6.12;100.00
73516;BME280;61763;51.416;5.442;2022-11-30T02:52:10;102212.47;;;6.13;100.00
73516;BME280;61763;51.416;5.442;2022-11-30T02:54:36;102216.06;;;6.12;100.00
73516;BME280;61763;51.416;5.442;2022-11-30T02:57:02;102218.75;;;6.12;100.00
73516;BME280;61763;51.416;5.442;2022-11-30T02:59:27;102217.81;;;6.13;100.00
73516;BME280;61763;51.416;5.442;2022-11-30T03:01:53;102218.72;;;6.14;100.00
73516;BME280;61763;51.416;5.442;2022-11-30T03:04:18;102214.25;;;6.13;100.00
73516;BME280;61763;51.416;5.442;2022-11-30T03:06:44;102216.97;;;6.11;100.00
73516;BME280;61763;51.416;5.442;2022-11-30T03:09:09;102208.91;;;6.11;100.00
73516;BME280;61763;51.416;5.442;2022-11-30T03:11:35;102214.28;;;6.11;100.00
73516;BME280;61763;51.416;5.442;2022-11-30T03:14:01;102215.19;;;6.10;100.00
73516;BME280;61763;51.416;5.442;2022-11-30T03:16:26;102215.19;;;6.10;100.00
73516;BME280;61763;51.416;5.442;2022-11-30T03:18:52;102217.91;;;6.06;100.00
73516;BME280;61763;51.416;5.442;2022-11-30T03:21:18;102213.44;;;6.05;100.00
73516;BME280;61763;51.416;5.442;2022-11-30T03:23:43;102216.13;;;6.05;100.00
73516;BME280;61763;51.416;5.442;2022-11-30T03:26:08;102213.47;;;6.03;100.00
73516;BME280;61763;51.416;5.442;2022-11-30T03:28:35;102218.00;;;5.98;100.00
73516;BME280;61763;51.416;5.442;2022-11-30T03:31:00;102214.41;;;5.94;100.00
73516;BME280;61763;51.416;5.442;2022-11-30T03:33:26;102217.09;;;5.91;100.00
73516;BME280;61763;51.416;5.442;2022-11-30T03:36:01;102218.91;;;5.91;100.00
73516;BME280;61763;51.416;5.442;2022-11-30T03:38:26;102217.13;;;5.90;100.00
73516;BME280;61763;51.416;5.442;2022-11-30T03:41:13;102224.25;;;5.91;100.00
73516;BME280;61763;51.416;5.442;2022-11-30T03:43:40;102213.56;;;5.88;100.00
73516;BME280;61763;51.416;5.442;2022-11-30T03:46:06;102213.59;;;5.85;100.00
73516;BME280;61763;51.416;5.442;2022-11-30T03:48:31;102218.03;;;5.86;100.00
73516;BME280;61763;51.416;5.442;2022-11-30T03:50:57;102220.72;;;5.86;100.00
73516;BME280;61763;51.416;5.442;2022-11-30T03:53:23;102221.66;;;5.85;100.00
73516;BME280;61763;51.416;5.442;2022-11-30T03:55:54;102222.53;;;5.84;100.00
73516;BME280;61763;51.416;5.442;2022-11-30T03:58:21;102212.75;;;5.78;100.00
73516;BME280;61763;51.416;5.442;2022-11-30T04:00:47;102222.63;;;5.76;100.00
73516;BME280;61763;51.416;5.442;2022-11-30T04:03:12;102215.47;;;5.73;100.00
73516;BME280;61763;51.416;5.442;2022-11-30T04:05:37;102211.03;;;5.69;100.00
73516;BME280;61763;51.416;5.442;2022-11-30T04:08:03;102217.31;;;5.67;100.00
73516;BME280;61763;51.416;5.442;2022-11-30T04:10:28;102213.72;;;5.68;100.00
73516;BME280;61763;51.416;5.442;2022-11-30T04:12:54;102216.41;;;5.68;100.00
73516;BME280;61763;51.416;5.442;2022-11-30T04:15:19;102228.03;;;5.67;100.00
73516;BME280;61763;51.416;5.442;2022-11-30T04:17:44;102226.28;;;5.64;100.00
73516;BME280;61763;51.416;5.442;2022-11-30T04:20:10;102223.59;;;5.64;100.00
73516;BME280;61763;51.416;5.442;2022-11-30T04:22:48;102219.16;;;5.61;100.00
73516;BME280;61763;51.416;5.442;2022-11-30T04:25:13;102214.72;;;5.57;100.00
73516;BME280;61763;51.416;5.442;2022-11-30T04:27:39;102218.28;;;5.55;100.00
73516;BME280;61763;51.416;5.442;2022-11-30T04:30:04;102222.78;;;5.51;100.00
73516;BME280;61763;51.416;5.442;2022-11-30T04:32:30;102221.03;;;5.47;100.00
73516;BME280;61763;51.416;5.442;2022-11-30T04:34:57;102229.06;;;5.46;100.00
73516;BME280;61763;51.416;5.442;2022-11-30T04:37:22;102226.41;;;5.44;100.00
73516;BME280;61763;51.416;5.442;2022-11-30T04:39:47;102229.06;;;5.46;100.00
73516;BME280;61763;51.416;5.442;2022-11-30T04:42:13;102229.06;;;5.47;100.00
73516;BME280;61763;51.416;5.442;2022-11-30T04:44:40;102233.50;;;5.50;100.00
73516;BME280;61763;51.416;5.442;2022-11-30T04:47:05;102234.41;;;5.50;100.00
73516;BME280;61763;51.416;5.442;2022-11-30T04:49:30;102237.97;;;5.51;100.00
73516;BME280;61763;51.416;5.442;2022-11-30T04:51:56;102238.84;;;5.51;100.00
73516;BME280;61763;51.416;5.442;2022-11-30T04:54:21;102237.06;;;5.50;100.00
73516;BME280;61763;51.416;5.442;2022-11-30T04:56:46;102234.41;;;5.50;100.00
73516;BME280;61763;51.416;5.442;2022-11-30T04:59:12;102233.50;;;5.50;100.00
73516;BME280;61763;51.416;5.442;2022-11-30T05:01:37;102230.81;;;5.53;100.00
73516;BME280;61763;51.416;5.442;2022-11-30T05:04:03;102226.34;;;5.53;100.00
73516;BME280;61763;51.416;5.442;2022-11-30T05:06:28;102240.63;;;5.55;100.00
73516;BME280;61763;51.416;5.442;2022-11-30T05:08:53;102236.13;;;5.57;100.00
73516;BME280;61763;51.416;5.442;2022-11-30T05:11:19;102240.56;;;5.61;100.00
73516;BME280;61763;51.416;5.442;2022-11-30T05:13:44;102234.31;;;5.63;100.00
73516;BME280;61763;51.416;5.442;2022-11-30T05:16:09;102237.88;;;5.63;100.00
73516;BME280;61763;51.416;5.442;2022-11-30T05:18:35;102235.19;;;5.63;100.00
73516;BME280;61763;51.416;5.442;2022-11-30T05:21:01;102232.56;;;5.60;100.00
73516;BME280;61763;51.416;5.442;2022-11-30T05:23:27;102240.63;;;5.57;100.00
73516;BME280;61763;51.416;5.442;2022-11-30T05:25:53;102242.44;;;5.50;100.00
73516;BME280;61763;51.416;5.442;2022-11-30T05:28:18;102241.59;;;5.45;100.00
73516;BME280;61763;51.416;5.442;2022-11-30T05:30:44;102240.72;;;5.40;100.00
73516;BME280;61763;51.416;5.442;2022-11-30T05:33:09;102246.06;;;5.40;100.00
73516;BME280;61763;51.416;5.442;2022-11-30T05:35:35;102254.97;;;5.43;100.00
73516;BME280;61763;51.416;5.442;2022-11-30T05:38:01;102246.03;;;5.44;100.00
73516;BME280;61763;51.416;5.442;2022-11-30T05:40:26;102255.88;;;5.42;100.00
73516;BME280;61763;51.416;5.442;2022-11-30T05:42:56;102249.66;;;5.40;100.00
73516;BME280;61763;51.416;5.442;2022-11-30T05:45:22;102254.13;;;5.35;100.00
73516;BME280;61763;51.416;5.442;2022-11-30T05:47:48;102261.31;;;5.32;100.00
73516;BME280;61763;51.416;5.442;2022-11-30T05:50:13;102252.41;;;5.26;100.00
73516;BME280;61763;51.416;5.442;2022-11-30T05:52:38;102250.59;;;5.25;100.00
73516;BME280;61763;51.416;5.442;2022-11-30T05:55:04;102256.88;;;5.24;100.00
73516;BME280;61763;51.416;5.442;2022-11-30T05:57:30;102269.34;;;5.22;100.00
73516;BME280;61763;51.416;5.442;2022-11-30T05:59:55;102263.13;;;5.22;100.00
73516;BME280;61763;51.416;5.442;2022-11-30T06:02:20;102266.69;;;5.21;100.00
73516;BME280;61763;51.416;5.442;2022-11-30T06:04:46;102270.28;;;5.21;100.00
73516;BME280;61763;51.416;5.442;2022-11-30T06:07:11;102276.50;;;5.22;100.00
73516;BME280;61763;51.416;5.442;2022-11-30T06:09:39;102274.72;;;5.22;100.00
73516;BME280;61763;51.416;5.442;2022-11-30T06:12:05;102277.38;;;5.22;100.00
73516;BME280;61763;51.416;5.442;2022-11-30T06:14:30;102284.53;;;5.25;100.00
73516;BME280;61763;51.416;5.442;2022-11-30T06:16:56;102279.16;;;5.26;100.00
73516;BME280;61763;51.416;5.442;2022-11-30T06:19:21;102280.97;;;5.26;100.00
73516;BME280;61763;51.416;5.442;2022-11-30T06:21:46;102283.63;;;5.26;100.00
73516;BME280;61763;51.416;5.442;2022-11-30T06:24:12;102272.03;;;5.24;100.00
73516;BME280;61763;51.416;5.442;2022-11-30T06:26:37;102280.94;;;5.28;100.00
73516;BME280;61763;51.416;5.442;2022-11-30T06:29:04;102285.44;;;5.27;100.00
73516;BME280;61763;51.416;5.442;2022-11-30T06:31:30;102274.72;;;5.24;100.00
73516;BME280;61763;51.416;5.442;2022-11-30T06:33:56;102282.72;;;5.25;100.00
73516;BME280;61763;51.416;5.442;2022-11-30T06:36:22;102281.84;;;5.25;100.00
73516;BME280;61763;51.416;5.442;2022-11-30T06:38:48;102284.53;;;5.25;100.00
73516;BME280;61763;51.416;5.442;2022-11-30T06:41:13;102279.16;;;5.26;100.00
73516;BME280;61763;51.416;5.442;2022-11-30T06:43:39;102280.97;;;5.24;100.00
73516;BME280;61763;51.416;5.442;2022-11-30T06:46:05;102284.53;;;5.25;100.00
73516;BME280;61763;51.416;5.442;2022-11-30T06:48:31;102276.50;;;5.23;100.00
73516;BME280;61763;51.416;5.442;2022-11-30T06:50:57;102287.19;;;5.25;100.00
73516;BME280;61763;51.416;5.442;2022-11-30T06:53:23;102291.69;;;5.24;100.00
73516;BME280;61763;51.416;5.442;2022-11-30T06:55:48;102295.22;;;5.26;100.00
73516;BME280;61763;51.416;5.442;2022-11-30T06:58:14;102293.44;;;5.29;100.00
73516;BME280;61763;51.416;5.442;2022-11-30T07:00:39;102297.00;;;5.29;100.00
73516;BME280;61763;51.416;5.442;2022-11-30T07:03:05;102290.75;;;5.32;100.00
73516;BME280;61763;51.416;5.442;2022-11-30T07:05:39;102288.06;;;5.32;100.00
73516;BME280;61763;51.416;5.442;2022-11-30T07:08:05;102295.19;;;5.33;100.00
73516;BME280;61763;51.416;5.442;2022-11-30T07:10:30;102297.84;;;5.34;100.00
73516;BME280;61763;51.416;5.442;2022-11-30T07:12:56;102289.81;;;5.34;100.00
73516;BME280;61763;51.416;5.442;2022-11-30T07:15:21;102295.16;;;5.36;100.00
73516;BME280;61763;51.416;5.442;2022-11-30T07:17:47;102296.97;;;5.35;100.00
73516;BME280;61763;51.416;5.442;2022-11-30T07:20:12;102309.47;;;5.33;100.00
73516;BME280;61763;51.416;5.442;2022-11-30T07:22:38;102304.13;;;5.32;100.00
73516;BME280;61763;51.416;5.442;2022-11-30T07:25:03;102315.69;;;5.35;100.00
73516;BME280;61763;51.416;5.442;2022-11-30T07:27:47;102317.50;;;5.33;100.00
73516;BME280;61763;51.416;5.442;2022-11-30T07:30:12;102320.19;;;5.33;100.00
73516;BME280;61763;51.416;5.442;2022-11-30T07:32:38;102317.53;;;5.32;100.00
73516;BME280;61763;51.416;5.442;2022-11-30T07:35:03;102320.19;;;5.33;100.00
73516;BME280;61763;51.416;5.442;2022-11-30T07:37:29;102328.22;;;5.35;100.00
73516;BME280;61763;51.416;5.442;2022-11-30T07:39:54;102325.53;;;5.35;100.00
73516;BME280;61763;51.416;5.442;2022-11-30T07:42:20;102327.28;;;5.36;100.00
73516;BME280;61763;51.416;5.442;2022-11-30T07:44:47;102327.28;;;5.40;100.00
73516;BME280;61763;51.416;5.442;2022-11-30T07:47:12;102332.66;;;5.42;100.00
73516;BME280;61763;51.416;5.442;2022-11-30T07:49:37;102333.50;;;5.47;100.00
73516;BME280;61763;51.416;5.442;2022-11-30T07:52:04;102342.41;;;5.51;100.00
73516;BME280;61763;51.416;5.442;2022-11-30T07:54:29;102337.03;;;5.55;100.00
73516;BME280;61763;51.416;5.442;2022-11-30T07:56:55;102344.16;;;5.59;100.00
73516;BME280;61763;51.416;5.442;2022-11-30T07:59:20;102340.56;;;5.59;100.00
73516;BME280;61763;51.416;5.442;2022-11-30T08:01:45;102338.78;;;5.63;100.00
73516;BME280;61763;51.416;5.442;2022-11-30T08:04:11;102345.91;;;5.62;100.00
73516;BME280;61763;51.416;5.442;2022-11-30T08:06:38;102342.31;;;5.68;100.00
73516;BME280;61763;51.416;5.442;2022-11-30T08:09:05;102338.72;;;5.70;100.00
73516;BME280;61763;51.416;5.442;2022-11-30T08:11:32;102344.06;;;5.73;100.00
73516;BME280;61763;51.416;5.442;2022-11-30T08:14:00;102344.91;;;5.77;100.00
73516;BME280;61763;51.416;5.442;2022-11-30T08:16:27;102351.16;;;5.84;100.00
73516;BME280;61763;51.416;5.442;2022-11-30T08:18:56;102349.34;;;5.84;100.00
73516;BME280;61763;51.416;5.442;2022-11-30T08:21:22;102352.00;;;5.90;100.00
73516;BME280;61763;51.416;5.442;2022-11-30T08:23:51;102353.75;;;5.97;100.00
73516;BME280;61763;51.416;5.442;2022-11-30T08:26:20;102356.41;;;5.96;100.00
73516;BME280;61763;51.416;5.442;2022-11-30T08:28:47;102357.31;;;5.96;100.00
73516;BME280;61763;51.416;5.442;2022-11-30T08:31:25;102357.31;;;5.96;100.00
73516;BME280;61763;51.416;5.442;2022-11-30T08:33:59;102359.09;;;5.96;100.00
73516;BME280;61763;51.416;5.442;2022-11-30T08:36:25;102366.22;;;6.03;100.00
73516;BME280;61763;51.416;5.442;2022-11-30T08:38:51;102366.22;;;6.03;100.00
73516;BME280;61763;51.416;5.442;2022-11-30T08:41:19;102373.38;;;6.03;100.00
73516;BME280;61763;51.416;5.442;2022-11-30T08:43:46;102372.47;;;6.01;100.00
73516;BME280;61763;51.416;5.442;2022-11-30T08:46:13;102376.97;;;5.94;100.00
73516;BME280;61763;51.416;5.442;2022-11-30T08:48:39;102381.47;;;5.90;100.00
73516;BME280;61763;51.416;5.442;2022-11-30T08:51:08;102386.88;;;5.81;100.00
73516;BME280;61763;51.416;5.442;2022-11-30T08:53:34;102387.78;;;5.78;100.00
73516;BME280;61763;51.416;5.442;2022-11-30T08:56:01;102391.28;;;5.88;100.00
73516;BME280;61763;51.416;5.442;2022-11-30T08:58:33;102388.63;;;5.88;100.00
73516;BME280;61763;51.416;5.442;2022-11-30T09:01:09;102391.25;;;5.94;100.00
73516;BME280;61763;51.416;5.442;2022-11-30T09:03:36;102386.78;;;6.04;100.00
73516;BME280;61763;51.416;5.442;2022-11-30T09:06:13;102385.88;;;6.07;100.00
73516;BME280;61763;51.416;5.442;2022-11-30T09:08:40;102390.34;;;6.02;100.00
73516;BME280;61763;51.416;5.442;2022-11-30T09:11:13;102394.84;;;5.93;100.00
73516;BME280;61763;51.416;5.442;2022-11-30T09:13:40;102396.69;;;5.85;100.00
73516;BME280;61763;51.416;5.442;2022-11-30T09:16:07;102386.91;;;5.76;100.00
73516;BME280;61763;51.416;5.442;2022-11-30T09:18:33;102403.00;;;5.72;100.00
73516;BME280;61763;51.416;5.442;2022-11-30T09:21:00;102396.75;;;5.73;100.00
73516;BME280;61763;51.416;5.442;2022-11-30T09:23:26;102400.28;;;5.79;100.00
73516;BME280;61763;51.416;5.442;2022-11-30T09:25:56;102402.91;;;5.87;100.00
73516;BME280;61763;51.416;5.442;2022-11-30T09:28:21;102403.78;;;5.91;100.00
73516;BME280;61763;51.416;5.442;2022-11-30T09:30:46;102400.22;;;5.95;100.00
73516;BME280;61763;51.416;5.442;2022-11-30T09:33:12;102403.78;;;5.97;100.00
73516;BME280;61763;51.416;5.442;2022-11-30T09:35:37;102410.03;;;6.02;100.00
73516;BME280;61763;51.416;5.442;2022-11-30T09:38:02;102401.97;;;6.04;100.00
73516;BME280;61763;51.416;5.442;2022-11-30T09:40:29;102402.81;;;6.10;100.00
73516;BME280;61763;51.416;5.442;2022-11-30T09:45:32;102406.25;;;6.29;100.00
73516;BME280;61763;51.416;5.442;2022-11-30T09:50:33;102398.03;;;6.51;100.00
73516;BME280;61763;51.416;5.442;2022-11-30T09:53:05;102405.09;;;6.61;100.00
73516;BME280;61763;51.416;5.442;2022-11-30T09:55:42;102405.88;;;6.73;100.00
73516;BME280;61763;51.416;5.442;2022-11-30T10:00:44;102406.56;;;6.95;100.00
73516;BME280;61763;51.416;5.442;2022-11-30T10:03:11;102400.34;;;6.90;100.00
73516;BME280;61763;51.416;5.442;2022-11-30T10:05:45;102399.53;;;6.81;100.00
73516;BME280;61763;51.416;5.442;2022-11-30T10:13:58;102394.09;;;6.91;100.00
73516;BME280;61763;51.416;5.442;2022-11-30T10:16:47;102393.94;;;7.03;100.00
73516;BME280;61763;51.416;5.442;2022-11-30T10:19:46;102389.41;;;7.11;100.00
73516;BME280;61763;51.416;5.442;2022-11-30T10:25:24;102385.44;;;7.42;100.00
73516;BME280;61763;51.416;5.442;2022-11-30T10:30:56;102383.47;;;7.56;100.00
73516;BME280;61763;51.416;5.442;2022-11-30T10:33:28;102383.34;;;7.65;100.00
73516;BME280;61763;51.416;5.442;2022-11-30T10:36:02;102380.56;;;7.75;100.00
73516;BME280;61763;51.416;5.442;2022-11-30T10:38:32;102374.22;;;7.80;100.00
73516;BME280;61763;51.416;5.442;2022-11-30T10:41:19;102375.91;;;7.84;100.00
73516;BME280;61763;51.416;5.442;2022-11-30T10:46:24;102371.50;;;7.82;100.00
73516;BME280;61763;51.416;5.442;2022-11-30T10:48:56;102366.03;;;7.88;100.00
73516;BME280;61763;51.416;5.442;2022-11-30T10:51:23;102370.44;;;7.92;100.00
73516;BME280;61763;51.416;5.442;2022-11-30T10:53:49;102365.75;;;8.05;100.00
73516;BME280;61763;51.416;5.442;2022-11-30T10:56:15;102359.59;;;7.98;100.00
73516;BME280;61763;51.416;5.442;2022-11-30T10:58:57;102363.09;;;8.03;100.00
73516;BME280;61763;51.416;5.442;2022-11-30T11:01:35;102356.69;;;8.12;100.00
73516;BME280;61763;51.416;5.442;2022-11-30T11:06:32;102353.84;;;8.21;100.00
73516;BME280;61763;51.416;5.442;2022-11-30T11:09:22;102354.53;;;8.34;100.00
73516;BME280;61763;51.416;5.442;2022-11-30T11:11:58;102348.28;;;8.34;100.00
73516;BME280;61763;51.416;5.442;2022-11-30T11:14:25;102351.53;;;8.54;100.00
73516;BME280;61763;51.416;5.442;2022-11-30T11:16:58;102349.75;;;8.53;100.00
73516;BME280;61763;51.416;5.442;2022-11-30T11:19:25;102348.91;;;8.51;100.00
73516;BME280;61763;51.416;5.442;2022-11-30T11:21:50;102351.53;;;8.54;100.00
73516;BME280;61763;51.416;5.442;2022-11-30T11:24:16;102349.53;;;8.67;100.00
73516;BME280;61763;51.416;5.442;2022-11-30T11:26:50;102344.84;;;8.75;100.00
73516;BME280;61763;51.416;5.442;2022-11-30T11:29:29;102349.44;;;8.72;100.00
73516;BME280;61763;51.416;5.442;2022-11-30T11:32:18;102351.38;;;8.62;97.54
73516;BME280;61763;51.416;5.442;2022-11-30T11:34:45;102352.53;;;8.49;96.18
73516;BME280;61763;51.416;5.442;2022-11-30T11:39:42;102347.22;;;8.44;93.38
73516;BME280;61763;51.416;5.442;2022-11-30T11:42:18;102353.41;;;8.49;92.07
73516;BME280;61763;51.416;5.442;2022-11-30T11:44:49;102356.38;;;8.32;92.31
73516;BME280;61763;51.416;5.442;2022-11-30T11:47:38;102347.38;;;8.32;94.57
73516;BME280;61763;51.416;5.442;2022-11-30T11:50:17;102352.66;;;8.39;93.65
73516;BME280;61763;51.416;5.442;2022-11-30T11:52:44;102361.97;;;8.17;94.94
73516;BME280;61763;51.416;5.442;2022-11-30T11:55:16;102358.41;;;8.16;94.16
73516;BME280;61763;51.416;5.442;2022-11-30T11:57:49;102353.13;;;8.12;94.57
73516;BME280;61763;51.416;5.442;2022-11-30T12:00:19;102363.19;;;7.97;96.73
73516;BME280;61763;51.416;5.442;2022-11-30T12:03:00;102361.44;;;7.93;96.92
73516;BME280;61763;51.416;5.442;2022-11-30T12:05:52;102354.19;;;8.00;97.07
73516;BME280;61763;51.416;5.442;2022-11-30T12:11:24;102355.22;;;7.91;98.44
73516;BME280;61763;51.416;5.442;2022-11-30T12:13:50;102345.28;;;7.96;99.98
73516;BME280;61763;51.416;5.442;2022-11-30T12:19:23;102350.00;;;7.82;100.00
73516;BME280;61763;51.416;5.442;2022-11-30T12:27:46;102352.50;;;7.27;100.00
73516;BME280;61763;51.416;5.442;2022-11-30T12:38:48;102350.88;;;7.14;100.00
73516;BME280;61763;51.416;5.442;2022-11-30T12:49:18;102366.91;;;7.22;100.00
73516;BME280;61763;51.416;5.442;2022-11-30T13:00:18;102357.28;;;7.72;100.00
73516;BME280;61763;51.416;5.442;2022-11-30T13:05:29;102364.53;;;7.65;100.00
73516;BME280;61763;51.416;5.442;2022-11-30T13:08:03;102360.16;;;7.60;100.00
73516;BME280;61763;51.416;5.442;2022-11-30T13:10:34;102362.19;;;7.41;100.00
73516;BME280;61763;51.416;5.442;2022-11-30T13:13:04;102369.44;;;7.32;100.00
73516;BME280;61763;51.416;5.442;2022-11-30T13:15:32;102372.28;;;7.22;100.00
73516;BME280;61763;51.416;5.442;2022-11-30T13:18:01;102373.25;;;7.14;100.00
73516;BME280;61763;51.416;5.442;2022-11-30T13:26:27;102369.63;;;7.18;100.00
73516;BME280;61763;51.416;5.442;2022-11-30T13:29:23;102373.75;;;7.46;100.00
73516;BME280;61763;51.416;5.442;2022-11-30T13:34:32;102371.63;;;7.71;99.93
73516;BME280;61763;51.416;5.442;2022-11-30T13:37:04;102368.94;;;7.71;100.00
73516;BME280;61763;51.416;5.442;2022-11-30T13:39:48;102372.47;;;7.76;100.00
73516;BME280;61763;51.416;5.442;2022-11-30T13:42:21;102381.44;;;7.74;97.97
73516;BME280;61763;51.416;5.442;2022-11-30T13:44:51;102378.84;;;7.69;97.85
73516;BME280;61763;51.416;5.442;2022-11-30T13:47:32;102373.59;;;7.58;98.51
73516;BME280;61763;51.416;5.442;2022-11-30T13:50:15;102365.59;;;7.53;97.75
73516;BME280;61763;51.416;5.442;2022-11-30T14:05:43;102372.59;;;7.65;97.69
73516;BME280;61763;51.416;5.442;2022-11-30T14:10:45;102390.66;;;7.56;98.92
73516;BME280;61763;51.416;5.442;2022-11-30T14:20:56;102394.44;;;7.39;100.00
73516;BME280;61763;51.416;5.442;2022-11-30T14:26:15;102406.19;;;7.30;100.00
73516;BME280;61763;51.416;5.442;2022-11-30T14:28:59;102397.25;;;7.28;100.00
73516;BME280;61763;51.416;5.442;2022-11-30T14:31:33;102401.69;;;7.31;100.00
73516;BME280;61763;51.416;5.442;2022-11-30T14:34:08;102408.00;;;7.28;100.00
73516;BME280;61763;51.416;5.442;2022-11-30T14:36:42;102409.84;;;7.25;100.00
73516;BME280;61763;51.416;5.442;2022-11-30T14:41:56;102407.25;;;7.12;100.00
73516;BME280;61763;51.416;5.442;2022-11-30T14:44:21;102410.81;;;7.16;100.00
73516;BME280;61763;51.416;5.442;2022-11-30T14:46:47;102405.50;;;7.13;100.00
73516;BME280;61763;51.416;5.442;2022-11-30T14:49:17;102411.81;;;7.06;100.00
73516;BME280;61763;51.416;5.442;2022-11-30T14:52:06;102409.22;;;6.99;100.00
73516;BME280;61763;51.416;5.442;2022-11-30T14:59:52;102415.50;;;6.95;100.00
73516;BME280;61763;51.416;5.442;2022-11-30T15:02:32;102419.03;;;7.00;100.00
73516;BME280;61763;51.416;5.442;2022-11-30T15:05:01;102414.59;;;6.95;100.00